Flight Track Log - Related Links

Times and Time Zones

All times are in EDT time to prevent confusion due to time zone crossing. See the SKW5631 flight status page for this flight to view local times or setup timezone preferences in your user account.

Time Position Orientation Groundspeed Altitude Reporting Facility
EDT Latitude Longitude Course Direction KTS MPH feet Rate Location/Type
Wed 03:49:20 PM 30.2744 -97.7647 278° West 223 257 5,700  Level Houston Center
Wed 03:50:00 PM 30.4023 -97.7601 276° West  Level FlightAware Approximate
Wed 03:50:22 PM 30.2897 -97.8325 285° West 219 252 8,200  Level Houston Center
Wed 03:51:00 PM 30.4130 -97.8887 276° West  Level FlightAware Approximate
Wed 03:51:24 PM 30.3014 -97.9117 280° West 224 258 10,600  Level Houston Center
Wed 03:52:00 PM 30.4168 -98.0178 278° West  Level FlightAware Approximate
Wed 03:52:27 PM 30.3139 -97.9914 280° West 244 281 11,800  Level Houston Center
Wed 03:53:00 PM 30.4329 -98.1457 278° West  Level FlightAware Approximate
Wed 03:53:29 PM 30.3306 -98.0811 282° West 292 336 14,400  Level Houston Center
Wed 03:54:00 PM 30.4488 -98.2737 278° West  Level FlightAware Approximate
Wed 03:54:31 PM 30.3439 -98.1708 280° West 283 326 16,500  Level Houston Center
Wed 03:55:33 PM 30.3619 -98.2828 281° West 297 342 18,000 726 Climbing Houston Center
Wed 03:56:35 PM 30.3786 -98.3864 281° West 321 369 18,000  Level Houston Center
Wed 03:57:37 PM 30.3961 -98.4983 280° West 346 398 18,000 194 Level Houston Center
Wed 03:58:39 PM 30.4139 -98.6161 280° West 363 418 18,400 576 Climbing Houston Center
Wed 03:59:42 PM 30.4322 -98.7325 280° West 365 420 19,200 864 Climbing Houston Center
Wed 04:00:44 PM 30.4514 -98.8483 281° West 363 418 20,200 1,500 Climbing Houston Center
Wed 04:01:46 PM 30.4708 -98.9658 281° West 366 421 22,300 2,081 Climbing Houston Center
Wed 04:02:48 PM 30.4881 -99.0783 280° West 354 407 24,500 2,129 Climbing Houston Center
Wed 04:03:50 PM 30.5053 -99.1881 280° West 336 387 26,700 1,742 Climbing Houston Center
Wed 04:04:52 PM 30.5233 -99.3136 280° West 332 382 28,100 1,258 Climbing Houston Center
Wed 04:05:54 PM 30.5400 -99.4208 280° West 339 390 29,300 1,008 Climbing Houston Center
Wed 04:06:57 PM 30.5561 -99.5303 280° West 345 397 30,200 912 Climbing Houston Center
Wed 04:07:59 PM 30.5731 -99.6397 280° West 347 399 31,200 919 Climbing Houston Center
Wed 04:09:01 PM 30.5903 -99.7525 280° West 354 407 32,100 823 Climbing Houston Center
Wed 04:10:03 PM 30.6050 -99.8658 279° West 357 411 32,900 774 Climbing Houston Center
Wed 04:11:05 PM 30.6228 -100.0050 278° West 363 418 33,700 726 Climbing Houston Center
Wed 04:12:07 PM 30.6367 -100.1197 278° West 361 415 34,400 677 Climbing Houston Center
Wed 04:13:09 PM 30.6503 -100.2397 278° West 376 433 35,100 720 Climbing Houston Center
Wed 04:14:12 PM 30.6653 -100.3558 279° West 368 423 35,900 432 Climbing Houston Center
Wed 04:15:14 PM 30.6822 -100.4992 278° West 379 436 36,000 48 Climbing Houston Center
Wed 04:16:16 PM 30.6967 -100.6231 278° West 390 449 36,000  Level Houston Center
Wed 04:17:18 PM 30.7114 -100.7481 278° West 394 453 36,000  Level Houston Center
Wed 04:18:20 PM 30.7256 -100.8725 278° West 392 451 36,000  Level Houston Center
Wed 04:19:22 PM 30.7394 -100.9969 277° West 391 450 36,000  Level Houston Center
Wed 04:20:24 PM 30.7528 -101.1231 277° West 396 456 36,000  Level Houston Center
Wed 04:21:26 PM 30.7725 -101.2706 279° West 389 448 36,000  Level Houston Center
Wed 04:22:29 PM 30.7858 -101.3972 277° West 394 453 36,000  Level Houston Center
Wed 04:23:31 PM 30.7994 -101.5228 277° West 395 455 36,000  Level Houston Center
Wed 04:24:33 PM 30.8128 -101.6578 277° West 395 455 36,000  Level Houston Center
Wed 04:24:56 PM 30.8192 -101.7050 279° West 393 452 36,000  Level Albuquerque Center
Wed 04:25:58 PM 30.8328 -101.8311 277° West 394 453 36,000  Level Albuquerque Center
Wed 04:27:00 PM 30.8458 -101.9561 277° West 391 450 36,000  Level Albuquerque Center
Wed 04:28:02 PM 30.8597 -102.0825 277° West 391 450 36,000  Level Albuquerque Center
Wed 04:29:04 PM 30.8717 -102.2072 276° West 388 447 36,000  Level Albuquerque Center
Wed 04:30:06 PM 30.8878 -102.3572 277° West 387 445 36,000  Level Albuquerque Center
Wed 04:31:08 PM 30.9003 -102.4808 277° West 384 442 36,000  Level Albuquerque Center
Wed 04:32:10 PM 30.9133 -102.6047 277° West 383 441 36,000  Level Albuquerque Center
Wed 04:33:12 PM 30.9258 -102.7275 277° West 383 441 36,000  Level Albuquerque Center
Wed 04:34:14 PM 30.9386 -102.8508 277° West 382 440 36,000  Level Albuquerque Center
Wed 04:35:16 PM 30.9508 -102.9731 277° West 381 438 36,000  Level Albuquerque Center
Wed 04:36:18 PM 30.9844 -103.0919 288° West 384 442 36,000  Level Albuquerque Center
Wed 04:37:20 PM 31.0239 -103.2356 288° West 388 447 36,000  Level Albuquerque Center
Wed 04:38:22 PM 31.0564 -103.3561 287° West 390 449 36,000  Level Albuquerque Center
Wed 04:39:24 PM 31.0889 -103.4764 288° West 390 449 36,000  Level Albuquerque Center
Wed 04:40:26 PM 31.1219 -103.5981 288° West 393 452 36,000  Level Albuquerque Center
Wed 04:41:28 PM 31.1544 -103.7206 287° West 395 455 36,000  Level Albuquerque Center
Wed 04:42:30 PM 31.1933 -103.8617 288° West 395 455 36,000  Level Albuquerque Center
Wed 04:43:32 PM 31.2264 -103.9853 287° West 398 458 36,000  Level Albuquerque Center
Wed 04:44:34 PM 31.2597 -104.1086 288° West 400 460 36,000  Level Albuquerque Center
Wed 04:45:36 PM 31.2914 -104.2306 287° West 397 457 36,000  Level Albuquerque Center
Wed 04:46:39 PM 31.3239 -104.3547 287° West 401 461 36,000  Level Albuquerque Center
Wed 04:47:41 PM 31.3569 -104.4767 288° West 399 459 36,000  Level Albuquerque Center
Wed 04:48:43 PM 31.3958 -104.6225 287° West 396 456 36,000  Level Albuquerque Center
Wed 04:49:45 PM 31.4272 -104.7422 287° West 391 450 36,000  Level Albuquerque Center
Wed 04:50:47 PM 31.4572 -104.8611 287° West 387 445 36,000  Level Albuquerque Center
Wed 04:51:49 PM 31.4875 -104.9803 287° West 385 443 36,000  Level Albuquerque Center
Wed 04:52:51 PM 31.5197 -105.0986 288° West 385 443 36,000  Level Albuquerque Center
Wed 04:53:53 PM 31.5547 -105.2406 286° West 382 440 36,000  Level Albuquerque Center
Wed 04:54:55 PM 31.5844 -105.3594 286° West 383 441 36,000  Level Albuquerque Center
Wed 04:55:57 PM 31.6147 -105.4772 287° West 382 440 36,000  Level Albuquerque Center
Wed 04:56:59 PM 31.6453 -105.5964 287° West 382 440 36,000  Level Albuquerque Center
Wed 04:58:01 PM 31.6747 -105.7167 286° West 384 442 36,000  Level Albuquerque Center
Wed 04:59:03 PM 31.7114 -105.8603 287° West 385 443 36,000  Level Albuquerque Center
Wed 05:00:05 PM 31.7417 -105.9811 286° West 387 445 36,000  Level Albuquerque Center
Wed 05:01:07 PM 31.7719 -106.1019 286° West 386 444 36,000  Level Albuquerque Center
Wed 05:02:09 PM 31.8031 -106.2228 287° West 388 447 36,000  Level Albuquerque Center
Wed 05:03:11 PM 31.8228 -106.3458 281° West 384 442 36,000  Level Albuquerque Center
Wed 05:04:13 PM 31.8319 -106.4703 275° West 383 441 36,000  Level Albuquerque Center
Wed 05:05:15 PM 31.8414 -106.6200 274° West 385 443 36,000  Level Albuquerque Center
Wed 05:06:17 PM 31.8514 -106.7439 275° West 382 440 36,000  Level Albuquerque Center
Wed 05:07:19 PM 31.8611 -106.8686 275° West 382 440 36,000  Level Albuquerque Center
Wed 05:08:21 PM 31.8697 -106.9931 275° West 382 440 36,000  Level Albuquerque Center
Wed 05:09:23 PM 31.8775 -107.1178 274° West 382 440 36,000  Level Albuquerque Center
Wed 05:10:25 PM 31.8861 -107.2436 275° West 383 441 36,000  Level Albuquerque Center
Wed 05:11:27 PM 31.8956 -107.3950 274° West 386 444 36,000  Level Albuquerque Center
Wed 05:12:29 PM 31.9036 -107.5022 275° West 384 442 36,000  Level Albuquerque Center
Wed 05:13:32 PM 31.9125 -107.6456 274° West 383 441 36,000  Level Albuquerque Center
Wed 05:14:34 PM 31.9206 -107.7697 274° West 382 440 36,000  Level Albuquerque Center
Wed 05:15:36 PM 31.9286 -107.8939 274° West 381 438 36,000  Level Albuquerque Center
Wed 05:16:38 PM 31.9369 -108.0200 274° West 383 441 36,000  Level Albuquerque Center
Wed 05:17:40 PM 31.9450 -108.1472 274° West 384 442 36,000  Level Albuquerque Center
Wed 05:18:42 PM 31.9542 -108.2967 274° West 385 443 36,000  Level Albuquerque Center
Wed 05:19:44 PM 31.9636 -108.4214 275° West 385 443 36,000  Level Albuquerque Center
Wed 05:20:46 PM 32.0039 -108.5381 292° West 389 448 36,000  Level Albuquerque Center
Wed 05:21:48 PM 32.0447 -108.6578 292° West 395 455 36,000 532 Level Albuquerque Center
Wed 05:22:50 PM 32.0861 -108.7775 292° West 396 456 37,100 968 Climbing Albuquerque Center
Wed 05:23:52 PM 32.1253 -108.8925 292° West 386 444 38,000 435 Climbing Albuquerque Center
Wed 05:24:54 PM 32.1717 -109.0306 292° West 382 440 38,000  Level Albuquerque Center
Wed 05:25:56 PM 32.2111 -109.1494 291° West 387 445 38,000  Level Albuquerque Center
Wed 05:26:58 PM 32.2511 -109.2669 292° West 389 448 38,000  Level Albuquerque Center
Wed 05:28:00 PM 32.2911 -109.3869 292° West 392 451 38,000  Level Albuquerque Center
Wed 05:29:02 PM 32.3306 -109.5056 292° West 392 451 38,000  Level Albuquerque Center
Wed 05:30:04 PM 32.3778 -109.6486 291° West 392 451 38,000  Level Albuquerque Center
Wed 05:31:06 PM 32.4197 -109.7692 292° West 396 456 38,000  Level Albuquerque Center
Wed 05:32:08 PM 32.4603 -109.8914 291° West 401 461 38,000  Level Albuquerque Center
Wed 05:33:10 PM 32.4989 -110.0108 291° West 394 453 38,000  Level Albuquerque Center
Wed 05:34:12 PM 32.5383 -110.1292 292° West 392 451 38,000  Level Albuquerque Center
Wed 05:35:14 PM 32.5844 -110.2719 291° West 389 448 38,000  Level Albuquerque Center
Wed 05:36:15 PM 32.6208 -110.3806 292° West 387 445 38,000  Level Albuquerque Center
Wed 05:37:17 PM 32.6589 -110.4978 291° West 384 442 38,000  Level Albuquerque Center
Wed 05:38:19 PM 32.6983 -110.6222 291° West 381 438 38,000  Level Albuquerque Center
Wed 05:39:22 PM 32.7414 -110.7539 291° West 377 434 38,000  Level Albuquerque Center
Wed 05:40:23 PM 32.7789 -110.8711 291° West 379 436 38,000  Level Albuquerque Center
Wed 05:41:25 PM 32.8156 -110.9900 290° West 382 440 38,000  Level Albuquerque Center
Wed 05:42:27 PM 32.8528 -111.1075 291° West 381 438 38,000  Level Albuquerque Center
Wed 05:43:29 PM 32.8911 -111.2258 291° West 382 440 38,000  Level Albuquerque Center
Wed 05:44:31 PM 32.9289 -111.3428 291° West 380 437 38,000  Level Albuquerque Center
Wed 05:46:36 PM 33.0117 -111.6078 290° West 388 447 38,000  Level Albuquerque Center
Wed 05:47:38 PM 33.0486 -111.7278 290° West 386 444 38,000  Level Albuquerque Center
Wed 05:48:40 PM 33.0856 -111.8483 290° West 386 444 38,000  Level Albuquerque Center
Wed 05:49:42 PM 33.1233 -111.9694 290° West 388 447 38,000  Level Albuquerque Center
Wed 05:50:44 PM 33.1594 -112.0897 290° West 386 444 38,000  Level Albuquerque Center
Wed 05:51:46 PM 33.1969 -112.2114 290° West 388 447 38,000  Level Albuquerque Center
Wed 05:52:48 PM 33.2397 -112.3556 290° West 385 443 38,000  Level Albuquerque Center
Wed 05:53:50 PM 33.2764 -112.4764 290° West 386 444 38,000  Level Albuquerque Center
Wed 05:54:52 PM 33.3131 -112.5994 290° West 391 450 38,000  Level Albuquerque Center
Wed 05:55:54 PM 33.3542 -112.7314 290° West 394 453 38,000  Level Albuquerque Center
Wed 05:56:56 PM 33.3906 -112.8553 289° West 395 455 38,000  Level Albuquerque Center
Wed 05:57:58 PM 33.4283 -112.9806 290° West 400 460 38,000  Level Albuquerque Center
Wed 05:59:00 PM 33.4653 -113.1058 289° West 402 463 38,000  Level Albuquerque Center
Wed 06:00:02 PM 33.5028 -113.2311 290° West 401 461 38,000  Level Albuquerque Center
Wed 06:01:04 PM 33.5478 -113.3847 289° West 407 468 38,000  Level Albuquerque Center
Wed 06:02:06 PM 33.5844 -113.5125 289° West 407 468 38,000  Level Albuquerque Center
Wed 06:03:08 PM 33.6092 -113.6422 283° West 402 463 38,000  Level Albuquerque Center
Wed 06:04:10 PM 33.6308 -113.7664 282° West 397 457 38,000  Level Albuquerque Center
Wed 06:05:12 PM 33.6567 -113.8953 284° West 397 457 38,000  Level Albuquerque Center
Wed 06:06:14 PM 33.6850 -114.0522 282° West 400 460 38,000  Level Albuquerque Center
Wed 06:07:16 PM 33.7092 -114.1825 283° West 400 460 38,000  Level Albuquerque Center
Wed 06:08:18 PM 33.7417 -114.3169 286° West 408 470 38,000  Level Albuquerque Center
Wed 06:09:20 PM 33.7750 -114.4475 287° West 409 471 38,000  Level Albuquerque Center
Wed 06:09:56 PM 33.7919 -114.5117 288° West 408 470 38,000  Level Los Angeles Center
Wed 06:10:58 PM 33.8325 -114.6697 287° West 412 474 38,000  Level Los Angeles Center
Wed 06:12:00 PM 33.8658 -114.8008 287° West 412 474 38,000  Level Los Angeles Center
Wed 06:13:02 PM 33.8981 -114.9336 286° West 415 478 38,000  Level Los Angeles Center
Wed 06:14:05 PM 33.9311 -115.0658 287° West 413 475 38,000  Level Los Angeles Center
Wed 06:15:07 PM 33.9697 -115.2258 286° West 417 480 38,000  Level Los Angeles Center
Wed 06:16:09 PM 34.0044 -115.3600 287° West 420 483 38,000  Level Los Angeles Center
Wed 06:17:11 PM 34.0372 -115.4950 286° West 422 486 38,000  Level Los Angeles Center
Wed 06:18:13 PM 34.0694 -115.6297 286° West 421 484 38,000  Level Los Angeles Center
Wed 06:19:15 PM 34.1017 -115.7644 286° West 422 486 38,000  Level Los Angeles Center
Wed 06:20:17 PM 34.1347 -115.9039 286° West 421 484 38,000  Level Los Angeles Center
Wed 06:21:19 PM 34.1678 -116.0403 286° West 424 488 38,000  Level Los Angeles Center
Wed 06:22:22 PM 34.2067 -116.2056 286° West 425 489 38,000  Level Los Angeles Center
Wed 06:23:24 PM 34.2389 -116.3428 286° West 425 489 38,000  Level Los Angeles Center
Wed 06:24:26 PM 34.2708 -116.4794 286° West 423 487 38,000  Level Los Angeles Center
Wed 06:25:28 PM 34.3042 -116.6150 287° West 421 484 38,000  Level Los Angeles Center
Wed 06:26:30 PM 34.3358 -116.7533 286° West 427 491 38,000  Level Los Angeles Center
Wed 06:27:32 PM 34.3681 -116.8931 286° West 429 494 38,000  Level Los Angeles Center
Wed 06:28:34 PM 34.4064 -117.0603 286° West 428 493 38,000  Level Los Angeles Center
Wed 06:29:36 PM 34.4381 -117.1989 286° West 428 493 38,000  Level Los Angeles Center
Wed 06:30:38 PM 34.4694 -117.3392 285° West 431 496 38,000  Level Los Angeles Center
Wed 06:31:40 PM 34.5022 -117.4808 286° West 433 498 38,000  Level Los Angeles Center
Wed 06:32:43 PM 34.5333 -117.6236 285° West 437 503 38,000  Level Los Angeles Center
Wed 06:33:45 PM 34.5650 -117.7664 285° West 437 503 38,000  Level Los Angeles Center
Wed 06:34:47 PM 34.5961 -117.9078 285° West 433 498 38,000  Level Los Angeles Center
Wed 06:35:49 PM 34.6436 -118.0767 289° West 444 511 38,000  Level Los Angeles Center
Wed 06:36:51 PM 34.7081 -118.2033 302° West 439 505 38,000  Level Los Angeles Center
Wed 06:37:53 PM 34.7775 -118.3289 304° West 444 511 38,000  Level Los Angeles Center
Wed 06:38:55 PM 34.8442 -118.4556 303° West 443 510 38,000  Level Los Angeles Center
Wed 06:39:57 PM 34.9206 -118.5958 304° West 445 512 38,000  Level Los Angeles Center
Wed 06:40:59 PM 34.9803 -118.7269 299° West 445 512 38,000  Level Los Angeles Center
Wed 06:42:01 PM 35.0378 -118.8589 298° West 442 509 38,000 -48 Level Los Angeles Center
Wed 06:43:03 PM 35.0950 -118.9914 298° West 444 511 37,900  Descending Los Angeles Center
Wed 06:44:06 PM 35.1508 -119.1253 297° West 442 509 38,000  Climbing Los Angeles Center
Wed 06:45:08 PM 35.2194 -119.2847 298° West 443 510 37,900  Descending Los Angeles Center
Wed 06:46:10 PM 35.2756 -119.4167 298° West 437 503 38,000 48 Climbing Los Angeles Center
Wed 06:47:12 PM 35.3328 -119.5494 298° West 441 507 38,000  Level Los Angeles Center
Wed 06:47:57 PM 35.3750 -119.6536 296° West 440 506 38,000  Level Oakland Center
Wed 06:48:58 PM 35.4294 -119.7867 297° West 441 507 38,000  Level Oakland Center
Wed 06:49:59 PM 35.4856 -119.9175 298° West 440 506 38,000  Level Oakland Center
Wed 06:51:01 PM 35.5400 -120.0494 297° West 439 505 38,000  Level Oakland Center
Wed 06:52:02 PM 35.5939 -120.1803 297° West 437 503 38,000  Level Oakland Center
Wed 06:53:03 PM 35.6475 -120.3103 297° West 435 501 38,000  Level Oakland Center
Wed 06:54:04 PM 35.7114 -120.4669 297° West 434 499 38,000  Level Oakland Center
Wed 06:55:06 PM 35.7650 -120.5975 297° West 431 496 38,000  Level Oakland Center
Wed 06:56:07 PM 35.8181 -120.7283 297° West 431 496 38,000 -246 Level Oakland Center
Wed 06:57:08 PM 35.8722 -120.8617 297° West 434 499 37,500 -829 Descending Oakland Center
Wed 06:58:10 PM 35.9269 -120.9978 296° West 444 511 36,300 -732 Descending Oakland Center
Wed 06:59:11 PM 35.9822 -121.1389 296° West 457 526 36,000 -148 Descending Oakland Center
Wed 07:00:12 PM 36.0367 -121.2731 297° West 443 510 36,000  Level Oakland Center
Wed 07:01:14 PM 36.0986 -121.4328 296° West 431 496 36,000 -439 Level Oakland Center
Wed 07:02:15 PM 36.1572 -121.5567 300° West 424 488 35,100 -1,623 Descending Oakland Center
Wed 07:03:16 PM 36.2494 -121.6383 324° Northwest 410 472 32,700 -2,537 Descending Oakland Center
Wed 07:04:18 PM 36.3517 -121.6986 335° Northwest 407 468 29,900 -2,780 Descending Oakland Center
Wed 07:05:19 PM 36.4489 -121.7647 331° Northwest 401 461 27,000 -2,880 Descending Oakland Center
Wed 07:05:58 PM 36.5167 -121.8167 328° Northwest 400 460 25,100 -2,727 Descending Northern Cal TRACON
Wed 07:06:58 PM 36.6167 -121.8667 338° Northwest 384 442 22,500 -2,400 Descending Northern Cal TRACON
Wed 07:07:58 PM 36.7000 -121.9333 327° Northwest 366 421 20,300 -2,000 Descending Northern Cal TRACON
Wed 07:08:58 PM 36.7833 -121.9833 334° Northwest 337 388 18,500 -1,800 Descending Northern Cal TRACON
Wed 07:09:58 PM 36.8833 -122.0000 352° North 321 369 16,700 -1,773 Descending Northern Cal TRACON
Wed 07:10:26 PM 36.9139 -122.0053 352° North 320 368 15,900 -1,933 Descending Oakland Center
Wed 07:11:28 PM 36.9975 -122.0292 347° North 312 359 13,800 -2,049 Descending Oakland Center
Wed 07:12:29 PM 37.0833 -122.0525 348° North 314 361 11,700 -2,016 Descending Oakland Center
Wed 07:13:30 PM 37.1675 -122.0739 349° North 310 357 9,700 -1,707 Descending Oakland Center
Wed 07:14:32 PM 37.2458 -122.0953 348° North 295 339 8,200 -1,463 Descending Oakland Center
Wed 07:15:33 PM 37.3333 -122.1172 349° North 271 312 6,700 -1,317 Descending Oakland Center
Wed 07:16:35 PM 37.4006 -122.1369 347° North 253 291 5,500 -1,122 Descending Oakland Center
Wed 07:17:36 PM 37.4631 -122.1519 349° North 235 270 4,400 -927 Descending Oakland Center
Wed 07:18:38 PM 37.5214 -122.1717 345° North 223 257 3,600 -927 Descending Oakland Center
Wed 07:19:39 PM 37.5558 -122.2278 308° West 206 237 2,500 -1,024 Descending Oakland Center
Wed 07:20:41 PM 37.5803 -122.2856 298° West 197 227 1,500 -976 Descending Oakland Center
Wed 07:21:42 PM 37.5967 -122.3272 296° West 158 182 500 -984 Descending Oakland Center

Login

Don't have an account? Register now (free) for customized features, flight alerts, and more!